CheckWX is a tool to help pilots better visualize weather data.  It is not intended as a substitute for an official pre-flight weather briefing.

14:57:16 UTC

KSAZ METAR
Staples Municipal Airport
Staples, Minnesota, USA
Current

22 mins ago

KSAZ 221435Z AUTO 05009G16KT 10SM CLR 07/02 A3010 RMK AO2
Observed
Apr-22 @ 14:35 UTC
Wind
  • 050° at 9 KTS
  • Gusting to 16 KTS
Visibility
10 SM
Flight Rules
VFR
Cloud Levels
  • Clear skies
Temperature
C / 45°F
Dewpoint
C / 36°F
Humidity
71%
Altimeter
30.1" Hg
Pressure
1019.32 hPa
Previous

42 mins ago

KSAZ 221415Z AUTO 05007KT 10SM SCT100 07/02 A3010 RMK AO2
Observed
Apr-22 @ 14:15 UTC
Wind
  • 050° at 7 KTS
Visibility
10 SM
Flight Rules
VFR
Cloud Levels
  • Scattered at 10,000' AGL
Temperature
C / 45°F
Dewpoint
C / 36°F
Humidity
71%
Altimeter
30.1" Hg
Pressure
1019.32 hPa
Previous

1 hour ago

KSAZ 221355Z AUTO 04007KT 023V093 10SM OVC100 07/02 A3010 RMK AO2
Observed
Apr-22 @ 13:55 UTC
Wind
  • 040° at 7 KTS
Visibility
10 SM
Flight Rules
VFR
Cloud Levels
  • Overcast at 10,000' AGL
Temperature
C / 45°F
Dewpoint
C / 36°F
Humidity
71%
Altimeter
30.1" Hg
Pressure
1019.32 hPa